createdAt,value
2018-11-23T16:41:53.025Z,22.618
2018-11-23T16:42:08.898Z,22.605
2018-11-23T16:42:24.797Z,22.69
2018-11-23T16:42:40.790Z,22.605
2018-11-23T16:42:56.654Z,22.477
2018-11-23T16:43:12.549Z,22.404
2018-11-23T16:43:28.404Z,22.292
2018-11-23T16:43:44.279Z,22.292
2018-11-23T16:44:00.148Z,22.292
2018-11-23T16:44:16.016Z,22.279
2018-11-23T16:44:31.877Z,22.306
2018-11-23T16:44:47.820Z,22.461
2018-11-23T16:45:03.957Z,22.322
2018-11-23T16:45:20.246Z,22.322
2018-11-23T16:45:36.635Z,22.364
2018-11-23T16:45:52.941Z,22.364
2018-11-23T16:46:09.211Z,22.322
2018-11-23T16:46:25.532Z,22.292
2018-11-23T16:46:41.799Z,22.461
2018-11-23T16:46:58.097Z,22.447
2018-11-23T16:47:14.401Z,22.434
2018-11-23T16:47:30.653Z,22.461
2018-11-23T16:47:46.999Z,22.42
2018-11-23T16:48:03.223Z,22.535
2018-11-23T16:48:19.816Z,22.378
2018-11-23T16:48:36.202Z,22.322
2018-11-23T16:48:52.640Z,22.335
2018-11-23T16:49:08.897Z,22.322
2018-11-23T16:49:25.263Z,22.378
2018-11-23T16:49:41.507Z,22.506
2018-11-23T16:49:57.806Z,22.519
2018-11-23T16:50:14.119Z,22.477
2018-11-23T16:50:30.414Z,22.506
2018-11-23T16:50:46.856Z,22.535
2018-11-23T16:51:03.093Z,22.549
2018-11-23T16:51:19.373Z,22.42
2018-11-23T16:51:35.729Z,22.493
2018-11-23T16:51:51.967Z,22.434
2018-11-23T16:52:08.231Z,22.42
2018-11-23T16:52:24.527Z,22.506
2018-11-23T16:52:40.807Z,22.461
2018-11-23T16:52:57.076Z,22.447
2018-11-23T16:53:13.387Z,22.562
2018-11-23T16:53:29.955Z,22.605
2018-11-23T16:53:46.246Z,22.647
2018-11-23T16:54:02.511Z,22.661
2018-11-23T16:54:18.797Z,22.618
2018-11-23T16:54:35.313Z,22.605
2018-11-23T16:54:51.502Z,22.591
2018-11-23T16:55:08.045Z,22.647
2018-11-23T16:55:24.290Z,22.674
2018-11-23T16:55:40.534Z,22.69
2018-11-23T16:55:56.851Z,22.618
2018-11-23T16:56:13.175Z,22.591
2018-11-23T16:56:29.413Z,22.506
2018-11-23T16:56:45.795Z,22.506
2018-11-23T16:57:02.000Z,22.634
2018-11-23T16:57:18.268Z,22.69
2018-11-23T16:57:34.591Z,22.704
2018-11-23T16:57:50.845Z,22.661
2018-11-23T16:58:07.135Z,22.618
2018-11-23T16:58:23.453Z,22.506
2018-11-23T16:58:40.012Z,22.535
2018-11-23T16:58:56.297Z,22.477
2018-11-23T16:59:12.612Z,22.42
2018-11-23T16:59:28.866Z,22.447
2018-11-23T16:59:45.173Z,22.461
2018-11-23T17:00:01.488Z,22.404
2018-11-23T17:00:17.791Z,22.447
2018-11-23T17:00:34.119Z,22.519
2018-11-23T17:00:50.350Z,22.618
2018-11-23T17:01:06.647Z,22.634
2018-11-23T17:01:22.946Z,22.591
2018-11-23T17:01:39.193Z,22.519
2018-11-23T17:01:55.494Z,22.605
2018-11-23T17:02:11.752Z,22.618
2018-11-23T17:02:28.025Z,22.605
2018-11-23T17:02:44.300Z,22.647
2018-11-23T17:03:00.552Z,22.717
2018-11-23T17:03:16.830Z,22.733
2018-11-23T17:03:33.163Z,22.76
2018-11-23T17:03:49.665Z,22.746
2018-11-23T17:04:05.968Z,22.661
2018-11-23T17:04:22.250Z,22.704
2018-11-23T17:04:38.857Z,22.69
2018-11-23T17:04:55.009Z,22.789
2018-11-23T17:05:11.424Z,22.746
2018-11-23T17:05:27.791Z,22.704
2018-11-23T17:05:44.170Z,22.773
2018-11-23T17:06:00.428Z,22.789
2018-11-23T17:06:16.785Z,22.872
2018-11-23T17:06:33.208Z,22.802
2018-11-23T17:06:49.552Z,22.845
2018-11-23T17:07:30.488Z,22.872
2018-11-23T17:07:46.479Z,22.829
2018-11-23T17:08:02.552Z,22.872
2018-11-23T17:08:18.891Z,22.914
2018-11-23T17:08:40.599Z,22.928
2018-11-23T17:08:57.130Z,22.888
2018-11-23T17:09:13.484Z,22.829
2018-11-23T17:09:29.751Z,22.76
2018-11-23T17:09:46.049Z,22.69
2018-11-23T17:10:02.421Z,22.746
2018-11-23T17:10:19.003Z,22.746
2018-11-23T17:10:35.248Z,22.76
2018-11-23T17:10:51.594Z,22.773
2018-11-23T17:11:07.947Z,22.647
2018-11-23T17:11:24.210Z,22.634
2018-11-23T17:11:40.439Z,22.733
2018-11-23T17:11:56.773Z,22.733
2018-11-23T17:12:13.076Z,22.773
2018-11-23T17:12:29.387Z,22.829
2018-11-23T17:12:45.645Z,22.858
2018-11-23T17:13:01.929Z,22.816
2018-11-23T17:13:18.272Z,22.829
2018-11-23T17:13:34.515Z,22.816
2018-11-23T17:13:50.826Z,22.816
2018-11-23T17:14:07.352Z,22.845
2018-11-23T17:14:23.792Z,22.858
2018-11-23T17:14:40.076Z,22.746
2018-11-23T17:14:56.333Z,22.789
2018-11-23T17:15:12.700Z,22.789
2018-11-23T17:15:28.928Z,22.816
2018-11-23T17:15:45.239Z,22.802
2018-11-23T17:16:01.581Z,22.789
2018-11-23T17:16:17.825Z,22.802
2018-11-23T17:16:34.175Z,22.76
2018-11-23T17:16:50.478Z,22.76
2018-11-23T17:17:06.718Z,22.76
2018-11-23T17:17:22.985Z,22.746
2018-11-23T17:17:39.679Z,22.733
2018-11-23T17:17:55.956Z,22.733
2018-11-23T17:18:12.307Z,22.746
2018-11-23T17:18:28.599Z,22.733
2018-11-23T17:18:44.852Z,22.746
2018-11-23T17:19:01.191Z,22.773
2018-11-23T17:19:17.747Z,22.789
2018-11-23T17:19:34.056Z,22.789
2018-11-23T17:19:50.304Z,22.717
2018-11-23T17:20:06.587Z,22.733
2018-11-23T17:20:22.877Z,22.704
2018-11-23T17:20:39.161Z,22.733
2018-11-23T17:20:55.400Z,22.746
2018-11-23T17:21:11.725Z,22.76
2018-11-23T17:21:27.963Z,22.76
2018-11-23T17:21:44.243Z,22.773
2018-11-23T17:22:00.585Z,22.773
2018-11-23T17:22:16.864Z,22.789
2018-11-23T17:22:33.170Z,22.802
2018-11-23T17:22:50.768Z,22.733
2018-11-23T17:23:06.996Z,22.674
2018-11-23T17:23:23.311Z,22.661
2018-11-23T17:23:39.526Z,22.704
2018-11-23T17:23:55.868Z,22.733
2018-11-23T17:24:12.172Z,22.717
2018-11-23T17:24:28.707Z,22.717
2018-11-23T17:24:44.961Z,22.618
2018-11-23T17:25:01.339Z,22.618
2018-11-23T17:25:17.747Z,22.661
2018-11-23T17:25:34.296Z,22.647
2018-11-23T17:25:50.542Z,22.661
2018-11-23T17:26:06.778Z,22.69
2018-11-23T17:26:23.125Z,22.674
2018-11-23T17:26:39.407Z,22.647
2018-11-23T17:26:55.647Z,22.634
2018-11-23T17:27:11.955Z,22.634
2018-11-23T17:27:28.207Z,22.591
2018-11-23T17:27:44.495Z,22.647
2018-11-23T17:28:00.727Z,22.605
2018-11-23T17:28:17.021Z,22.647
2018-11-23T17:28:33.317Z,22.562
2018-11-23T17:28:49.624Z,22.578
2018-11-23T17:29:05.871Z,22.618
2018-11-23T17:29:23.875Z,22.605
2018-11-23T17:29:40.489Z,22.618
2018-11-23T17:29:56.678Z,22.618
2018-11-23T17:30:13.058Z,22.618
2018-11-23T17:30:29.359Z,22.605
2018-11-23T17:30:45.762Z,22.591
2018-11-23T17:31:01.982Z,22.591
2018-11-23T17:31:18.245Z,22.562
2018-11-23T17:31:34.611Z,22.562
2018-11-23T17:31:50.842Z,22.591
2018-11-23T17:32:07.106Z,22.549
2018-11-23T17:32:23.453Z,22.562
2018-11-23T17:32:39.673Z,22.519
2018-11-23T17:32:55.984Z,22.506
2018-11-23T17:33:12.372Z,22.549
2018-11-23T17:33:28.546Z,22.519
2018-11-23T17:33:44.937Z,22.519
2018-11-23T17:34:01.228Z,22.477
2018-11-23T17:34:17.541Z,22.493
2018-11-23T17:34:33.867Z,22.506
2018-11-23T17:34:50.400Z,22.477
2018-11-23T17:35:06.703Z,22.447
2018-11-23T17:35:23.035Z,22.447
2018-11-23T17:35:39.436Z,22.434
2018-11-23T17:35:55.697Z,22.391
2018-11-23T17:36:12.019Z,22.434
2018-11-23T17:36:28.418Z,22.434
2018-11-23T17:36:44.717Z,22.461
2018-11-23T17:37:01.025Z,22.404
2018-11-23T17:37:17.418Z,22.447
2018-11-23T17:37:33.704Z,22.42
2018-11-23T17:37:50.018Z,22.434
2018-11-23T17:38:06.289Z,22.42
2018-11-23T17:38:22.553Z,22.292
2018-11-23T17:38:48.481Z,22.348
2018-11-23T17:39:03.466Z,22.292
2018-11-23T17:39:19.379Z,22.209
2018-11-23T17:39:35.267Z,22.292
2018-11-23T17:39:51.457Z,22.292
2018-11-23T17:40:07.389Z,22.236
2018-11-23T17:40:23.383Z,22.111
2018-11-23T17:40:39.573Z,22.095
2018-11-23T17:40:55.465Z,22.081
2018-11-23T17:41:11.347Z,22.124
2018-11-23T17:41:27.279Z,22.039
2018-11-23T17:41:43.163Z,22.124
2018-11-23T17:41:59.042Z,22.167
2018-11-23T17:42:14.937Z,22.068
2018-11-23T17:42:30.822Z,22.167
2018-11-23T17:42:46.702Z,22.25
2018-11-23T17:43:02.575Z,22.266
2018-11-23T17:43:18.449Z,22.266
2018-11-23T17:43:34.337Z,22.209
2018-11-23T17:43:50.220Z,22.137
2018-11-23T17:44:06.111Z,22.081
2018-11-23T17:44:21.997Z,21.969
2018-11-23T17:44:37.884Z,22.012
2018-11-23T17:44:54.022Z,22.055
